• Join FlightAware (Why Join?)
  • Login
  • US Flag 
Rudolph Flight #1: Arrived! 
12:21AM EST


 

Airport Tracker/Info


-or-


 

Live Flight TrackerFlight Track Log ✈ KCE1 ✈ 03-Jul-2013 ✈ KBOS - CYSJ

Flight Track Log - Related Links

Times and Time Zones

All times are in EDT time to prevent confusion due to time zone crossing. See the KCE1 flight status page for this flight to view local times or setup timezone preferences in your user account.

Time Position Orientation Groundspeed Altitude Reporting Facility
EDT Latitude Longitude Course Direction KTS MPH feet Rate Location/Type
02:01PM 42.3667 -71.0167 144° Southeast 166 191 900  Level KA90
02:02PM 42.3167 -70.9667 144° Southeast 264 304 4,400 4,140 Climbing KA90
02:03PM 42.3167 -70.8500 90° East 311 358 9,200 4,080 Climbing KA90
02:04PM 42.3814 -70.7397 52° Northeast 341 392 13,700 2,220 Climbing Boston Center
02:05PM 42.4850 -70.7003 16° North 337 388 14,200 1,380 Climbing Boston Center
02:06PM 42.5889 -70.6719 11° North 350 403 16,500 2,400 Climbing Boston Center
02:07PM 42.6906 -70.6436 12° North 365 420 19,000 2,520 Climbing Boston Center
02:08PM 42.8069 -70.6203 North 390 449 21,600 1,980 Climbing Boston Center
02:09PM 42.9208 -70.5800 15° North 402 463 23,000 1,620 Climbing Boston Center
02:10PM 43.0083 -70.4525 47° Northeast 423 487 24,900 2,160 Climbing Boston Center
02:11PM 43.0828 -70.3108 54° Northeast 430 495 27,400 2,400 Climbing Boston Center
02:12PM 43.1614 -70.1658 53° Northeast 447 514 29,800 2,100 Climbing Boston Center
02:13PM 43.2375 -70.0203 54° Northeast 460 529 31,700 1,920 Climbing Boston Center
02:14PM 43.3178 -69.8717 53° Northeast 472 543 33,700 1,980 Climbing Boston Center
02:15PM 43.3975 -69.7197 54° Northeast 484 557 35,700 1,980 Climbing Boston Center
02:16PM 43.4772 -69.5700 54° Northeast 484 557 37,700 1,620 Climbing Boston Center
02:17PM 43.5567 -69.4203 54° Northeast 479 551 39,000 600 Climbing Boston Center
02:18PM 43.6422 -69.2608 53° Northeast 491 565 39,000  Level Boston Center
02:19PM 43.7250 -69.1014 54° Northeast 502 578 39,000  Level Boston Center
02:20PM 43.7500 -69.0000 71° East 510 587 39,000  Level Moncton Center
02:21PM 43.8500 -68.8500 47° Northeast 510 587 39,000  Level Moncton Center
02:22PM 43.9167 -68.6833 61° Northeast 500 575 39,000  Level Moncton Center
02:23PM 44.0167 -68.5333 47° Northeast 500 575 39,000  Level Moncton Center
02:24PM 44.0833 -68.3833 58° Northeast 510 587 39,000  Level Moncton Center
02:25PM 44.1667 -68.2000 58° Northeast 510 587 39,000 -180 Level Moncton Center
02:26PM 44.2500 -68.0333 55° Northeast 510 587 38,700 -780 Descending Moncton Center
02:27PM 44.3333 -67.8833 52° Northeast 510 587 37,500 -1,200 Descending Moncton Center
02:28PM 44.4167 -67.7167 55° Northeast 510 587 36,300 -1,680 Descending Moncton Center
02:29PM 44.5000 -67.5667 52° Northeast 510 587 34,200 -2,220 Descending Moncton Center
02:30PM 44.5833 -67.3833 57° Northeast 530 610 31,900 -2,460 Descending Moncton Center
02:31PM 44.6500 -67.2167 61° Northeast 520 598 29,300 -3,600 Descending Moncton Center
02:32PM 44.7333 -67.0500 55° Northeast 490 564 24,700 -4,320 Descending Moncton Center
02:33PM 44.8167 -66.9167 49° Northeast 490 564 20,700 -3,660 Descending Moncton Center
02:34PM 44.8833 -66.7500 61° Northeast 450 518 17,400 -3,240 Descending Moncton Center
02:35PM 44.9333 -66.6167 62° Northeast 420 483 14,300 -3,360 Descending Moncton Center
02:36PM 44.9667 -66.4833 70° East 390 449 10,700 -3,180 Descending Moncton Center
02:37PM 45.0167 -66.3333 65° Northeast 370 426 8,000 -2,580 Descending Moncton Center
02:38PM 45.0500 -66.2167 68° East 340 391 5,600 -2,520 Descending Moncton Center
02:39PM 45.1000 -66.1000 59° Northeast 320 368 3,000 -1,740 Descending Moncton Center
02:40PM 45.1500 -66.0167 50° Northeast 290 334 2,100 -480 Descending Moncton Center
02:41PM 45.2000 -65.9667 35° Northeast 250 288 2,100 -360 Level Moncton Center
02:42PM 45.2500 -65.9333 25° Northeast 190 219 1,400 -720 Descending Moncton Center
02:43PM 45.2833 -65.9000 35° Northeast 150 173 700 -720 Descending Moncton Center